createdAt,value
2022-12-28T00:01:19.373Z,2.10
2022-12-28T00:04:01.815Z,2.20
2022-12-28T00:06:33.069Z,2.20
2022-12-28T00:09:11.822Z,2.20
2022-12-28T00:11:44.302Z,2.20
2022-12-28T00:14:18.576Z,2.20
2022-12-28T00:17:06.241Z,2.20
2022-12-28T00:19:38.551Z,2.30
2022-12-28T00:22:12.734Z,2.30
2022-12-28T00:24:43.928Z,2.30
2022-12-28T00:27:12.883Z,2.30
2022-12-28T00:29:41.583Z,2.30
2022-12-28T00:32:15.750Z,2.30
2022-12-28T00:34:45.863Z,2.30
2022-12-28T00:37:16.837Z,2.30
2022-12-28T00:39:48.045Z,2.30
2022-12-28T00:42:17.295Z,2.20
2022-12-28T00:44:46.347Z,2.30
2022-12-28T00:47:22.321Z,2.30
2022-12-28T00:50:03.353Z,2.30
2022-12-28T00:52:32.268Z,2.30
2022-12-28T00:55:00.931Z,2.20
2022-12-28T00:57:29.748Z,2.30
2022-12-28T01:00:02.728Z,2.20
2022-12-28T01:02:33.913Z,2.20
2022-12-28T01:05:04.338Z,2.10
2022-12-28T01:07:33.148Z,2.10
2022-12-28T01:10:06.008Z,2.10
2022-12-28T01:12:38.318Z,2.20
2022-12-28T01:15:12.139Z,2.20
2022-12-28T01:17:44.081Z,2.20
2022-12-28T01:20:16.464Z,2.20
2022-12-28T01:22:48.951Z,2.20
2022-12-28T01:25:25.061Z,2.00
2022-12-28T01:27:54.140Z,2.00
2022-12-28T01:30:24.439Z,1.90
2022-12-28T01:32:55.526Z,1.90
2022-12-28T01:35:26.020Z,1.90
2022-12-28T01:38:00.987Z,1.80
2022-12-28T01:40:30.876Z,1.90
2022-12-28T01:43:12.782Z,1.80
2022-12-28T01:45:52.971Z,1.80
2022-12-28T01:48:29.139Z,1.70
2022-12-28T01:51:05.171Z,1.70
2022-12-28T01:53:35.676Z,1.70
2022-12-28T01:56:07.341Z,1.80
2022-12-28T01:58:39.600Z,1.80
2022-12-28T02:01:09.850Z,1.80
2022-12-28T02:03:38.732Z,1.80
2022-12-28T02:06:15.606Z,1.80
2022-12-28T02:08:53.621Z,1.70
2022-12-28T02:11:25.582Z,1.70
2022-12-28T02:13:56.456Z,1.70
2022-12-28T02:16:28.156Z,1.70
2022-12-28T02:18:57.512Z,1.70
2022-12-28T02:21:39.646Z,1.70
2022-12-28T02:25:12.184Z,1.70
2022-12-28T02:28:01.678Z,1.70
2022-12-28T02:30:35.832Z,1.70
2022-12-28T02:33:10.618Z,1.70
2022-12-28T02:35:49.393Z,1.60
2022-12-28T02:38:23.398Z,1.60
2022-12-28T02:40:57.430Z,1.60
2022-12-28T02:43:26.765Z,1.70
2022-12-28T02:46:14.624Z,1.70
2022-12-28T02:49:03.347Z,1.80
2022-12-28T02:51:45.347Z,1.80
2022-12-28T02:55:00.218Z,1.80
2022-12-28T02:57:46.987Z,1.70
2022-12-28T03:00:19.366Z,1.60
2022-12-28T03:03:05.220Z,1.60
2022-12-28T03:06:04.357Z,1.60
2022-12-28T03:08:53.399Z,1.50
2022-12-28T03:11:34.539Z,1.50
2022-12-28T03:14:37.294Z,1.40
2022-12-28T03:17:27.838Z,1.30
2022-12-28T03:20:29.015Z,1.20
2022-12-28T03:23:19.710Z,1.20
2022-12-28T03:26:15.244Z,1.10
2022-12-28T03:29:04.738Z,1.20
2022-12-28T03:31:40.673Z,1.00
2022-12-28T03:34:14.704Z,0.90
2022-12-28T03:36:59.458Z,0.90
2022-12-28T03:39:42.487Z,0.80
2022-12-28T03:42:40.679Z,0.80
2022-12-28T03:45:45.643Z,0.80
2022-12-28T03:48:08.591Z,0.70
2022-12-28T03:50:42.084Z,0.70
2022-12-28T03:53:13.020Z,0.70
2022-12-28T03:55:43.499Z,0.70
2022-12-28T03:58:12.507Z,0.60
2022-12-28T04:03:17.493Z,0.60
2022-12-28T04:05:47.102Z,0.50
2022-12-28T04:08:19.773Z,0.60
2022-12-28T04:10:49.058Z,0.50
2022-12-28T04:13:21.670Z,0.50
2022-12-28T04:15:58.811Z,0.50
2022-12-28T04:18:28.669Z,0.40
2022-12-28T04:20:57.533Z,0.40
2022-12-28T04:23:30.299Z,0.40
2022-12-28T04:26:16.302Z,0.30
2022-12-28T04:28:49.774Z,0.30
2022-12-28T04:31:27.724Z,0.30
2022-12-28T04:34:06.677Z,0.30
2022-12-28T04:36:42.106Z,0.30
2022-12-28T04:39:16.916Z,0.20
2022-12-28T04:41:45.755Z,0.20
2022-12-28T04:44:14.604Z,0.20
2022-12-28T04:46:43.524Z,0.10
2022-12-28T04:49:14.593Z,0.10
2022-12-28T04:51:43.459Z,0.10
2022-12-28T04:54:15.550Z,0.10
2022-12-28T04:56:46.967Z,0.10
2022-12-28T04:59:15.913Z,0.10
2022-12-28T05:01:45.015Z,0.10
2022-12-28T05:04:16.651Z,0.00
2022-12-28T05:06:47.637Z,0.10
2022-12-28T05:09:19.571Z,0.00
2022-12-28T05:11:49.495Z,0.00
2022-12-28T05:14:20.688Z,0.00
2022-12-28T05:17:00.667Z,0.00
2022-12-28T05:19:29.612Z,0.00
2022-12-28T05:21:58.426Z,0.00
2022-12-28T05:24:28.606Z,0.00
2022-12-28T05:26:57.400Z,0.00
2022-12-28T05:29:32.935Z,0.00
2022-12-28T05:32:01.874Z,-0.10
2022-12-28T05:34:30.611Z,-0.10
2022-12-28T05:36:59.307Z,-0.10
2022-12-28T05:39:29.598Z,-0.20
2022-12-28T05:42:00.899Z,-0.10
2022-12-28T05:44:29.878Z,-0.10
2022-12-28T05:47:04.131Z,-0.10
2022-12-28T05:49:33.876Z,-0.10
2022-12-28T05:52:02.335Z,0.00
2022-12-28T05:54:35.137Z,0.00
2022-12-28T05:57:04.033Z,0.10
2022-12-28T05:59:36.695Z,0.10
2022-12-28T06:02:05.638Z,0.10
2022-12-28T06:04:41.146Z,0.10
2022-12-28T06:07:10.021Z,0.10
2022-12-28T06:09:41.262Z,0.10
2022-12-28T06:12:15.145Z,0.00
2022-12-28T06:14:46.325Z,0.10
2022-12-28T06:17:33.666Z,0.10
2022-12-28T06:20:05.122Z,0.10
2022-12-28T06:22:43.009Z,0.10
2022-12-28T06:25:19.096Z,0.20
2022-12-28T06:27:49.949Z,0.20
2022-12-28T06:30:18.957Z,0.30
2022-12-28T06:32:52.582Z,0.30
2022-12-28T06:35:24.169Z,0.40
2022-12-28T06:37:52.955Z,0.40
2022-12-28T06:41:02.514Z,0.40
2022-12-28T06:43:20.677Z,0.50
2022-12-28T06:45:59.582Z,0.50
2022-12-28T06:48:28.940Z,0.50
2022-12-28T06:50:59.016Z,0.60
2022-12-28T06:53:36.304Z,0.60
2022-12-28T06:56:13.959Z,0.60
2022-12-28T06:58:43.114Z,0.70
2022-12-28T07:01:14.414Z,0.70
2022-12-28T07:03:43.984Z,0.70
2022-12-28T07:06:13.790Z,0.80
2022-12-28T07:08:42.835Z,0.80
2022-12-28T07:11:17.212Z,0.80
2022-12-28T07:13:47.443Z,0.80
2022-12-28T07:16:20.926Z,0.80
2022-12-28T07:18:55.121Z,0.90
2022-12-28T07:21:25.356Z,0.90
2022-12-28T07:23:58.678Z,0.90
2022-12-28T07:26:34.539Z,0.90
2022-12-28T07:29:11.387Z,0.90
2022-12-28T07:31:49.175Z,0.90
2022-12-28T07:34:20.191Z,0.90
2022-12-28T07:36:50.539Z,0.80
2022-12-28T07:39:23.820Z,0.80
2022-12-28T07:41:55.092Z,0.80
2022-12-28T07:44:29.364Z,0.70
2022-12-28T07:46:58.412Z,0.70
2022-12-28T07:49:27.247Z,0.70
2022-12-28T07:51:56.645Z,0.60
2022-12-28T07:54:31.051Z,0.60
2022-12-28T07:57:05.489Z,0.60
2022-12-28T07:59:36.363Z,0.60
2022-12-28T08:02:10.725Z,0.60
2022-12-28T08:04:39.684Z,0.60
2022-12-28T08:07:08.405Z,0.60
2022-12-28T08:09:42.297Z,0.60
2022-12-28T08:12:15.341Z,0.60
2022-12-28T08:14:46.455Z,0.70
2022-12-28T08:17:21.315Z,0.60
2022-12-28T08:19:51.040Z,0.70
2022-12-28T08:22:36.592Z,0.70
2022-12-28T08:25:12.791Z,0.70
2022-12-28T08:27:45.480Z,0.80
2022-12-28T08:30:15.870Z,0.90
2022-12-28T08:32:47.576Z,0.90
2022-12-28T08:35:16.537Z,1.00
2022-12-28T08:37:45.235Z,1.00
2022-12-28T08:40:20.017Z,1.00
2022-12-28T08:42:51.405Z,1.00
2022-12-28T08:45:20.127Z,1.00
2022-12-28T08:48:07.346Z,1.00
2022-12-28T08:50:36.102Z,1.00
2022-12-28T08:53:10.434Z,1.00
2022-12-28T08:55:41.018Z,1.00
2022-12-28T08:58:14.301Z,1.00
2022-12-28T09:00:46.059Z,1.00
2022-12-28T09:03:16.054Z,1.00
2022-12-28T09:05:54.242Z,1.00
2022-12-28T09:08:29.204Z,1.00
2022-12-28T09:11:06.063Z,1.00
2022-12-28T09:13:41.206Z,1.00
2022-12-28T09:16:17.010Z,1.10
2022-12-28T09:18:47.683Z,1.10
2022-12-28T09:21:20.972Z,1.10
2022-12-28T09:24:20.168Z,1.20
2022-12-28T09:26:45.045Z,1.20
2022-12-28T09:29:22.925Z,1.30
2022-12-28T09:31:57.009Z,1.30
2022-12-28T09:34:36.196Z,1.40
2022-12-28T09:37:08.946Z,1.40
2022-12-28T09:39:37.767Z,1.40
2022-12-28T09:42:21.860Z,1.50
2022-12-28T09:45:00.745Z,1.50
2022-12-28T09:47:35.720Z,1.50
2022-12-28T09:50:28.642Z,1.50
2022-12-28T09:53:33.626Z,1.50
2022-12-28T09:56:10.523Z,1.60
2022-12-28T09:58:47.887Z,1.50
2022-12-28T10:01:25.441Z,1.60
2022-12-28T10:04:06.033Z,1.60
2022-12-28T10:06:39.779Z,1.60
2022-12-28T10:09:21.566Z,1.60
2022-12-28T10:12:02.479Z,1.60
2022-12-28T10:14:34.681Z,1.60
2022-12-28T10:17:06.515Z,1.60
2022-12-28T10:19:37.516Z,1.60
2022-12-28T10:22:20.624Z,1.60
2022-12-28T10:24:56.140Z,1.60
2022-12-28T10:27:36.448Z,1.60
2022-12-28T10:30:27.469Z,1.60
2022-12-28T10:33:04.765Z,1.50
2022-12-28T10:35:42.541Z,1.50
2022-12-28T10:38:32.341Z,1.50
2022-12-28T10:41:15.999Z,1.50
2022-12-28T10:44:14.666Z,1.50
2022-12-28T10:47:03.269Z,1.50
2022-12-28T10:50:26.933Z,1.60
2022-12-28T10:52:45.231Z,1.50
2022-12-28T10:55:34.277Z,1.50
2022-12-28T10:58:31.242Z,1.50
2022-12-28T11:01:08.350Z,1.50
2022-12-28T11:03:44.020Z,1.50
2022-12-28T11:06:28.221Z,1.50
2022-12-28T11:09:19.179Z,1.50
2022-12-28T11:11:52.601Z,1.50
2022-12-28T11:14:32.542Z,1.50
2022-12-28T11:17:38.645Z,1.40
2022-12-28T11:20:39.137Z,1.40
2022-12-28T11:23:16.156Z,1.40
2022-12-28T11:25:45.659Z,1.40
2022-12-28T11:28:23.052Z,1.40
2022-12-28T11:31:07.861Z,1.40
2022-12-28T11:33:46.986Z,1.40
2022-12-28T11:36:33.713Z,1.40
2022-12-28T11:40:51.013Z,1.40
2022-12-28T11:44:23.702Z,1.40
2022-12-28T11:47:29.107Z,1.40
2022-12-28T11:50:32.972Z,1.40
2022-12-28T11:53:21.614Z,1.50
2022-12-28T11:57:10.911Z,1.50
2022-12-28T11:59:44.821Z,1.50
2022-12-28T12:03:11.261Z,1.50
2022-12-28T12:05:52.524Z,1.50
2022-12-28T12:08:45.865Z,1.50
2022-12-28T12:11:52.638Z,1.50
2022-12-28T12:14:41.898Z,1.60
2022-12-28T12:17:27.794Z,1.60
2022-12-28T12:20:01.800Z,1.60
2022-12-28T12:22:34.716Z,1.60
2022-12-28T12:25:19.641Z,1.60
2022-12-28T12:27:57.958Z,1.60
2022-12-28T12:34:51.757Z,1.60
2022-12-28T12:37:37.124Z,1.60
2022-12-28T12:40:31.419Z,1.60
2022-12-28T12:43:24.990Z,1.60
2022-12-28T12:46:08.506Z,1.60
2022-12-28T12:48:54.645Z,1.60
2022-12-28T12:51:32.596Z,1.60
2022-12-28T12:54:26.540Z,1.70
2022-12-28T12:57:02.441Z,1.70
2022-12-28T12:59:53.092Z,1.70
2022-12-28T13:02:57.997Z,1.70
2022-12-28T13:05:31.087Z,1.70
2022-12-28T13:08:05.247Z,1.70
2022-12-28T13:10:36.907Z,1.70
2022-12-28T13:13:07.525Z,1.70
2022-12-28T13:15:36.442Z,1.70
2022-12-28T13:18:43.389Z,1.70
2022-12-28T13:20:58.966Z,1.70
2022-12-28T13:23:33.179Z,1.70
2022-12-28T13:26:03.658Z,1.70
2022-12-28T13:28:37.214Z,1.70
2022-12-28T13:31:11.166Z,1.70
2022-12-28T13:33:41.018Z,1.70
2022-12-28T13:36:13.931Z,1.70
2022-12-28T13:38:49.143Z,1.70
2022-12-28T13:41:26.778Z,1.70
2022-12-28T13:44:24.125Z,1.70
2022-12-28T13:47:06.158Z,1.70
2022-12-28T13:49:40.487Z,1.70
2022-12-28T13:52:13.356Z,1.70
2022-12-28T13:54:48.079Z,1.70
2022-12-28T13:57:49.339Z,1.70
2022-12-28T14:00:29.045Z,1.70
2022-12-28T14:02:59.915Z,1.60
2022-12-28T14:05:31.082Z,1.60
2022-12-28T14:08:06.661Z,1.60
2022-12-28T14:10:41.239Z,1.60
2022-12-28T14:13:15.762Z,1.60
2022-12-28T14:15:52.746Z,1.50
2022-12-28T14:18:27.709Z,1.50
2022-12-28T14:21:01.559Z,1.50
2022-12-28T14:23:34.704Z,1.50
2022-12-28T14:26:08.283Z,1.50
2022-12-28T14:28:43.425Z,1.50
2022-12-28T14:31:27.963Z,1.40
2022-12-28T14:34:04.674Z,1.40
2022-12-28T14:36:40.652Z,1.40
2022-12-28T14:39:35.947Z,1.40
2022-12-28T14:42:18.415Z,1.30
2022-12-28T14:45:01.420Z,1.30
2022-12-28T14:47:58.638Z,1.30
2022-12-28T14:50:31.511Z,1.30
2022-12-28T14:53:10.776Z,1.30
2022-12-28T14:55:58.490Z,1.30
2022-12-28T14:58:29.858Z,1.30
2022-12-28T15:01:06.181Z,1.30
2022-12-28T15:03:55.821Z,1.30
2022-12-28T15:06:33.909Z,1.30
2022-12-28T15:09:08.428Z,1.30
2022-12-28T15:11:39.186Z,1.30
2022-12-28T15:14:11.020Z,1.30
2022-12-28T15:16:58.137Z,1.30
2022-12-28T15:19:36.837Z,1.30
2022-12-28T15:22:13.489Z,1.30
2022-12-28T15:24:45.604Z,1.30
2022-12-28T15:27:19.633Z,1.30
2022-12-28T15:30:08.263Z,1.30
2022-12-28T15:32:41.451Z,1.20
2022-12-28T15:35:13.855Z,1.20
2022-12-28T15:37:46.978Z,1.20
2022-12-28T15:40:16.183Z,1.20
2022-12-28T15:43:02.971Z,1.20
2022-12-28T15:48:25.941Z,1.20
2022-12-28T15:51:17.570Z,1.20
2022-12-28T15:53:52.494Z,1.20
2022-12-28T15:56:23.775Z,1.20
2022-12-28T15:59:04.507Z,1.20
2022-12-28T16:01:41.803Z,1.10
2022-12-28T16:04:19.701Z,1.10
2022-12-28T16:07:14.184Z,1.10
2022-12-28T16:09:54.390Z,1.10
2022-12-28T16:12:34.388Z,1.10
2022-12-28T16:15:11.829Z,1.10
2022-12-28T16:17:55.100Z,1.10
2022-12-28T16:20:28.407Z,1.10
2022-12-28T16:23:07.529Z,1.00
2022-12-28T16:26:03.937Z,1.00
2022-12-28T16:28:36.985Z,1.00
2022-12-28T16:31:36.884Z,1.00
2022-12-28T16:34:08.218Z,1.00
2022-12-28T16:36:50.143Z,1.00
2022-12-28T16:39:23.316Z,1.10
2022-12-28T16:42:02.649Z,1.10
2022-12-28T16:44:35.613Z,1.00
2022-12-28T16:47:37.033Z,1.00
2022-12-28T16:50:18.650Z,1.00
2022-12-28T16:53:04.952Z,1.00
2022-12-28T16:55:44.281Z,1.00
2022-12-28T16:58:18.515Z,1.00
2022-12-28T17:00:54.500Z,1.00
2022-12-28T17:03:43.101Z,1.00
2022-12-28T17:09:10.668Z,1.00
2022-12-28T17:11:44.960Z,1.00
2022-12-28T17:14:36.298Z,1.00
2022-12-28T17:17:18.881Z,1.00
2022-12-28T17:19:55.031Z,0.90
2022-12-28T17:22:28.754Z,1.00
2022-12-28T17:25:15.054Z,1.00
2022-12-28T17:27:45.606Z,1.00
2022-12-28T17:30:15.169Z,1.00
2022-12-28T17:32:52.156Z,0.90
2022-12-28T17:35:26.101Z,1.00
2022-12-28T17:38:13.440Z,1.00
2022-12-28T17:40:47.473Z,1.00
2022-12-28T17:43:21.671Z,0.90
2022-12-28T17:45:55.972Z,1.00
2022-12-28T17:48:33.012Z,1.00
2022-12-28T17:51:11.119Z,0.90
2022-12-28T17:53:50.194Z,1.00
2022-12-28T17:56:23.292Z,1.00
2022-12-28T17:59:03.852Z,0.90
2022-12-28T18:01:35.840Z,0.90
2022-12-28T18:04:12.408Z,1.00
2022-12-28T18:06:41.518Z,0.90
2022-12-28T18:09:15.290Z,0.90
2022-12-28T18:11:47.743Z,0.90
2022-12-28T18:14:21.207Z,0.90
2022-12-28T18:16:56.056Z,1.00
2022-12-28T18:19:30.074Z,1.00
2022-12-28T18:22:00.622Z,1.00
2022-12-28T18:24:37.110Z,1.00
2022-12-28T18:27:09.084Z,1.00
2022-12-28T18:29:41.972Z,1.00
2022-12-28T18:32:24.511Z,1.00
2022-12-28T18:35:01.211Z,1.00
2022-12-28T18:37:32.429Z,1.00
2022-12-28T18:40:04.026Z,1.00
2022-12-28T18:42:34.347Z,1.00
2022-12-28T18:45:13.020Z,1.10
2022-12-28T18:47:44.917Z,1.00
2022-12-28T18:50:23.301Z,1.00
2022-12-28T18:53:03.733Z,1.00
2022-12-28T18:55:57.681Z,1.00
2022-12-28T18:58:37.352Z,1.00
2022-12-28T19:01:39.765Z,1.00
2022-12-28T19:04:12.401Z,1.00
2022-12-28T19:07:11.285Z,1.10
2022-12-28T19:10:12.474Z,1.10
2022-12-28T19:13:09.571Z,1.00
2022-12-28T19:16:47.204Z,1.00
2022-12-28T19:19:28.366Z,1.00
2022-12-28T19:22:10.777Z,1.10
2022-12-28T19:24:47.494Z,1.10
2022-12-28T19:27:26.759Z,1.10
2022-12-28T19:30:02.635Z,1.10
2022-12-28T19:32:34.670Z,1.10
2022-12-28T19:35:15.879Z,1.10
2022-12-28T19:37:52.083Z,1.10
2022-12-28T19:40:34.876Z,1.10
2022-12-28T19:43:06.425Z,1.10
2022-12-28T19:45:42.238Z,1.10
2022-12-28T19:48:13.061Z,1.10
2022-12-28T19:50:49.919Z,1.10
2022-12-28T19:53:29.028Z,1.10
2022-12-28T19:56:32.747Z,1.10
2022-12-28T19:59:05.970Z,1.10
2022-12-28T20:01:42.752Z,1.10
2022-12-28T20:04:13.974Z,1.10
2022-12-28T20:06:53.474Z,1.10
2022-12-28T20:09:23.627Z,1.10
2022-12-28T20:11:55.675Z,1.00
2022-12-28T20:14:26.999Z,1.00
2022-12-28T20:17:09.059Z,1.00
2022-12-28T20:19:38.968Z,1.00
2022-12-28T20:22:17.593Z,1.00
2022-12-28T20:24:46.570Z,1.00
2022-12-28T20:27:18.277Z,1.00
2022-12-28T20:29:54.014Z,1.00
2022-12-28T20:32:25.945Z,1.00
2022-12-28T20:34:56.622Z,1.00
2022-12-28T20:37:32.108Z,1.00
2022-12-28T20:40:13.327Z,1.00
2022-12-28T20:43:03.494Z,1.00
2022-12-28T20:45:38.518Z,1.10
2022-12-28T20:48:07.709Z,1.10
2022-12-28T20:50:45.037Z,1.10
2022-12-28T20:53:19.974Z,1.10
2022-12-28T20:56:09.494Z,1.10
2022-12-28T20:58:41.915Z,1.10
2022-12-28T21:01:21.225Z,1.10
2022-12-28T21:03:53.124Z,1.10
2022-12-28T21:06:24.069Z,1.10
2022-12-28T21:09:04.653Z,1.10
2022-12-28T21:11:38.655Z,1.10
2022-12-28T21:14:21.481Z,1.10
2022-12-28T21:16:50.565Z,1.10
2022-12-28T21:19:36.003Z,1.10
2022-12-28T21:22:07.304Z,1.10
2022-12-28T21:24:47.265Z,1.10
2022-12-28T21:27:21.926Z,1.10
2022-12-28T21:29:58.927Z,1.10
2022-12-28T21:32:32.731Z,1.10
2022-12-28T21:35:06.596Z,1.00
2022-12-28T21:37:38.388Z,1.10
2022-12-28T21:40:16.316Z,1.10
2022-12-28T21:42:46.294Z,1.10
2022-12-28T21:45:22.486Z,1.20
2022-12-28T21:47:54.028Z,1.10
2022-12-28T21:50:24.730Z,1.20
2022-12-28T21:52:55.926Z,1.20
2022-12-28T21:55:44.222Z,1.20
2022-12-28T21:58:14.531Z,1.10
2022-12-28T22:01:00.903Z,1.10
2022-12-28T22:03:58.524Z,1.20
2022-12-28T22:06:27.501Z,1.20
2022-12-28T22:09:13.675Z,1.20
2022-12-28T22:12:01.584Z,1.10
2022-12-28T22:14:33.608Z,1.20
2022-12-28T22:17:10.916Z,1.10
2022-12-28T22:19:43.255Z,1.10
2022-12-28T22:22:22.247Z,1.20
2022-12-28T22:24:52.744Z,1.20
2022-12-28T22:27:26.569Z,1.10
2022-12-28T22:29:59.228Z,1.20
2022-12-28T22:32:30.053Z,1.20
2022-12-28T22:35:01.565Z,1.20
2022-12-28T22:37:40.748Z,1.20
2022-12-28T22:40:13.717Z,1.20
2022-12-28T22:42:52.290Z,1.20
2022-12-28T22:45:38.685Z,1.20
2022-12-28T22:48:14.190Z,1.20
2022-12-28T22:50:44.504Z,1.20
2022-12-28T22:53:13.931Z,1.20
2022-12-28T22:55:51.876Z,1.30
2022-12-28T22:58:44.306Z,1.30
2022-12-28T23:01:23.437Z,1.20
2022-12-28T23:04:09.117Z,1.20
2022-12-28T23:06:44.421Z,1.20
2022-12-28T23:09:27.853Z,1.20
2022-12-28T23:12:01.101Z,1.20
2022-12-28T23:15:15.542Z,1.20
2022-12-28T23:18:08.961Z,1.30
2022-12-28T23:21:16.732Z,1.30
2022-12-28T23:24:04.704Z,1.20
2022-12-28T23:26:51.897Z,1.20
2022-12-28T23:29:40.470Z,1.20
2022-12-28T23:32:17.648Z,1.20
2022-12-28T23:35:13.571Z,1.20
2022-12-28T23:37:51.623Z,1.20
2022-12-28T23:40:25.188Z,1.20
2022-12-28T23:43:07.884Z,1.20
2022-12-28T23:46:13.603Z,1.20
2022-12-28T23:48:48.361Z,1.20
2022-12-28T23:51:29.764Z,1.20
2022-12-28T23:54:11.901Z,1.20
2022-12-28T23:56:47.679Z,1.30
2022-12-28T23:59:22.291Z,1.20
